createdAt,value
2022-08-20T00:01:16.628Z,18.41
2022-08-20T00:51:04.712Z,18.41
2022-08-20T01:19:42.306Z,18.34
2022-08-20T01:32:28.651Z,18.10
2022-08-20T01:59:47.004Z,18.37
2022-08-20T02:09:52.592Z,17.62
2022-08-20T02:19:59.630Z,17.23
2022-08-20T02:30:07.074Z,17.38
2022-08-20T02:40:14.690Z,17.15
2022-08-20T02:51:41.533Z,17.29
2022-08-20T03:01:47.883Z,17.56
2022-08-20T03:12:00.167Z,17.47
2022-08-20T03:22:07.166Z,17.30
2022-08-20T03:32:14.021Z,17.30
2022-08-20T03:42:21.163Z,17.09
2022-08-20T03:52:28.132Z,17.25
2022-08-20T04:02:35.049Z,17.25
2022-08-20T04:12:53.017Z,17.20
2022-08-20T04:22:59.267Z,17.20
2022-08-20T04:33:06.382Z,17.24
2022-08-20T04:43:13.879Z,17.44
2022-08-20T04:53:25.857Z,17.44
2022-08-20T05:03:33.532Z,17.36
2022-08-20T05:13:41.433Z,17.56
2022-08-20T05:23:49.042Z,17.72
2022-08-20T05:33:57.049Z,17.60
2022-08-20T05:44:05.113Z,17.66
2022-08-20T05:54:12.342Z,17.75
2022-08-20T06:04:21.515Z,17.75
2022-08-20T06:14:28.686Z,17.75
2022-08-20T06:27:19.072Z,18.10
2022-08-20T06:37:30.857Z,18.29
2022-08-20T06:47:38.085Z,18.29
2022-08-20T06:57:49.002Z,18.14
2022-08-20T07:07:57.155Z,18.08
2022-08-20T07:18:09.648Z,18.12
2022-08-20T07:28:19.660Z,18.30
2022-08-20T07:38:33.011Z,18.37
2022-08-20T07:51:22.009Z,18.33
2022-08-20T08:22:39.699Z,19.31
2022-08-20T08:38:05.134Z,19.29
2022-08-20T08:48:17.871Z,19.02
2022-08-20T08:58:25.039Z,19.12
2022-08-20T09:08:32.588Z,19.34
2022-08-20T09:18:40.619Z,19.72
2022-08-20T09:28:52.106Z,19.97
2022-08-20T09:39:00.171Z,20.31
2022-08-20T09:49:08.891Z,20.31
2022-08-20T09:59:18.176Z,20.04
2022-08-20T10:09:25.798Z,20.37
2022-08-20T10:19:34.017Z,20.81
2022-08-20T10:29:46.314Z,21.17
2022-08-20T10:39:54.199Z,21.29
2022-08-20T10:51:21.578Z,21.19
2022-08-20T13:59:14.535Z,19.73
2022-08-20T14:09:20.381Z,19.43
2022-08-20T15:40:19.439Z,19.66
2022-08-20T16:02:26.121Z,19.76
2022-08-20T16:16:33.043Z,19.33
2022-08-20T17:32:57.645Z,19.14
2022-08-20T19:13:14.182Z,19.14
2022-08-20T19:23:20.870Z,17.41
2022-08-20T19:45:23.473Z,17.51
2022-08-20T20:04:55.446Z,17.55
2022-08-20T20:17:35.689Z,17.55
2022-08-20T20:27:41.753Z,17.11
2022-08-20T20:43:06.649Z,17.11
2022-08-20T21:01:08.299Z,17.34
2022-08-20T21:16:32.802Z,17.11
2022-08-20T21:29:17.411Z,17.13
2022-08-20T21:48:40.034Z,17.13
2022-08-20T22:00:04.212Z,17.27
2022-08-20T22:10:09.914Z,16.77
2022-08-20T22:20:16.095Z,16.70
2022-08-20T22:30:23.643Z,16.62
2022-08-20T22:40:30.928Z,16.62
2022-08-20T22:50:37.595Z,16.64
2022-08-20T23:00:45.693Z,16.52
2022-08-20T23:10:53.869Z,16.45
2022-08-20T23:21:01.028Z,16.47
2022-08-20T23:31:08.476Z,16.51
2022-08-20T23:41:15.469Z,16.51
2022-08-20T23:51:22.227Z,16.25
